sensor_id;sensor_type;location;lat;lon;timestamp;pressure;altitude;pressure_sealevel;temperature
10058;BMP180;5068;51.286;7.518;2024-02-23T00:00:10;96597.00;;;10.10
10058;BMP180;5068;51.286;7.518;2024-02-23T00:01:44;96614.00;;;10.10
10058;BMP180;5068;51.286;7.518;2024-02-23T00:03:17;96606.00;;;10.10
10058;BMP180;5068;51.286;7.518;2024-02-23T00:04:50;96607.00;;;10.00
10058;BMP180;5068;51.286;7.518;2024-02-23T00:06:24;96618.00;;;10.00
10058;BMP180;5068;51.286;7.518;2024-02-23T00:08:00;96634.00;;;10.00
10058;BMP180;5068;51.286;7.518;2024-02-23T00:09:33;96622.00;;;10.00
10058;BMP180;5068;51.286;7.518;2024-02-23T00:11:05;96639.00;;;10.00
10058;BMP180;5068;51.286;7.518;2024-02-23T00:12:39;96642.00;;;10.00
10058;BMP180;5068;51.286;7.518;2024-02-23T00:14:13;96638.00;;;10.00
10058;BMP180;5068;51.286;7.518;2024-02-23T00:15:45;96638.00;;;10.00
10058;BMP180;5068;51.286;7.518;2024-02-23T00:17:18;96636.00;;;10.00
10058;BMP180;5068;51.286;7.518;2024-02-23T00:18:51;96644.00;;;10.00
10058;BMP180;5068;51.286;7.518;2024-02-23T00:20:25;96660.00;;;10.00
10058;BMP180;5068;51.286;7.518;2024-02-23T00:21:59;96648.00;;;9.90
10058;BMP180;5068;51.286;7.518;2024-02-23T00:23:32;96650.00;;;9.90
10058;BMP180;5068;51.286;7.518;2024-02-23T00:25:06;96654.00;;;9.90
10058;BMP180;5068;51.286;7.518;2024-02-23T00:26:39;96663.00;;;9.90
10058;BMP180;5068;51.286;7.518;2024-02-23T00:28:11;96668.00;;;9.80
10058;BMP180;5068;51.286;7.518;2024-02-23T00:29:45;96673.00;;;9.80
10058;BMP180;5068;51.286;7.518;2024-02-23T00:31:17;96667.00;;;9.80
10058;BMP180;5068;51.286;7.518;2024-02-23T00:32:50;96688.00;;;9.80
10058;BMP180;5068;51.286;7.518;2024-02-23T00:34:23;96692.00;;;9.80
10058;BMP180;5068;51.286;7.518;2024-02-23T00:35:56;96708.00;;;9.80
10058;BMP180;5068;51.286;7.518;2024-02-23T00:37:30;96694.00;;;9.80
10058;BMP180;5068;51.286;7.518;2024-02-23T00:39:07;96703.00;;;9.70
10058;BMP180;5068;51.286;7.518;2024-02-23T00:40:40;96724.00;;;9.70
10058;BMP180;5068;51.286;7.518;2024-02-23T00:42:12;96712.00;;;9.70
10058;BMP180;5068;51.286;7.518;2024-02-23T00:43:46;96718.00;;;9.60
10058;BMP180;5068;51.286;7.518;2024-02-23T00:45:19;96728.00;;;9.60
10058;BMP180;5068;51.286;7.518;2024-02-23T00:46:52;96743.00;;;9.60
10058;BMP180;5068;51.286;7.518;2024-02-23T00:48:25;96743.00;;;9.50
10058;BMP180;5068;51.286;7.518;2024-02-23T00:49:57;96756.00;;;9.50
10058;BMP180;5068;51.286;7.518;2024-02-23T00:51:31;96739.00;;;9.50
10058;BMP180;5068;51.286;7.518;2024-02-23T00:53:04;96747.00;;;9.40
10058;BMP180;5068;51.286;7.518;2024-02-23T00:54:38;96753.00;;;9.40
10058;BMP180;5068;51.286;7.518;2024-02-23T00:56:10;96767.00;;;9.40
10058;BMP180;5068;51.286;7.518;2024-02-23T00:57:44;96761.00;;;9.40
10058;BMP180;5068;51.286;7.518;2024-02-23T00:59:17;96772.00;;;9.30
10058;BMP180;5068;51.286;7.518;2024-02-23T01:00:50;96761.00;;;9.30
10058;BMP180;5068;51.286;7.518;2024-02-23T01:02:23;96776.00;;;9.30
10058;BMP180;5068;51.286;7.518;2024-02-23T01:03:56;96762.00;;;9.30
10058;BMP180;5068;51.286;7.518;2024-02-23T01:05:28;96780.00;;;9.30
10058;BMP180;5068;51.286;7.518;2024-02-23T01:07:02;96778.00;;;9.30
10058;BMP180;5068;51.286;7.518;2024-02-23T01:08:36;96783.00;;;9.30
10058;BMP180;5068;51.286;7.518;2024-02-23T01:10:09;96777.00;;;9.30
10058;BMP180;5068;51.286;7.518;2024-02-23T01:11:42;96788.00;;;9.30
10058;BMP180;5068;51.286;7.518;2024-02-23T01:13:15;96788.00;;;9.30
10058;BMP180;5068;51.286;7.518;2024-02-23T01:14:49;96797.00;;;9.30
10058;BMP180;5068;51.286;7.518;2024-02-23T01:16:21;96795.00;;;9.30
10058;BMP180;5068;51.286;7.518;2024-02-23T01:17:54;96800.00;;;9.20
10058;BMP180;5068;51.286;7.518;2024-02-23T01:19:28;96800.00;;;9.20
10058;BMP180;5068;51.286;7.518;2024-02-23T01:21:01;96797.00;;;9.20
10058;BMP180;5068;51.286;7.518;2024-02-23T01:22:33;96804.00;;;9.20
10058;BMP180;5068;51.286;7.518;2024-02-23T01:24:08;96800.00;;;9.20
10058;BMP180;5068;51.286;7.518;2024-02-23T01:25:40;96810.00;;;9.20
10058;BMP180;5068;51.286;7.518;2024-02-23T01:27:13;96816.00;;;9.20
10058;BMP180;5068;51.286;7.518;2024-02-23T01:28:46;96810.00;;;9.20
10058;BMP180;5068;51.286;7.518;2024-02-23T01:30:19;96804.00;;;9.20
10058;BMP180;5068;51.286;7.518;2024-02-23T01:31:52;96805.00;;;9.20
10058;BMP180;5068;51.286;7.518;2024-02-23T01:33:26;96806.00;;;9.10
10058;BMP180;5068;51.286;7.518;2024-02-23T01:35:00;96810.00;;;9.10
10058;BMP180;5068;51.286;7.518;2024-02-23T01:36:32;96812.00;;;9.10
10058;BMP180;5068;51.286;7.518;2024-02-23T01:38:05;96811.00;;;9.10
10058;BMP180;5068;51.286;7.518;2024-02-23T01:39:39;96824.00;;;9.10
10058;BMP180;5068;51.286;7.518;2024-02-23T01:41:12;96813.00;;;9.10
10058;BMP180;5068;51.286;7.518;2024-02-23T01:42:44;96807.00;;;9.10
10058;BMP180;5068;51.286;7.518;2024-02-23T01:44:17;96813.00;;;9.10
10058;BMP180;5068;51.286;7.518;2024-02-23T01:45:53;96806.00;;;9.10
10058;BMP180;5068;51.286;7.518;2024-02-23T01:47:28;96813.00;;;9.10
10058;BMP180;5068;51.286;7.518;2024-02-23T01:49:02;96825.00;;;9.20
10058;BMP180;5068;51.286;7.518;2024-02-23T01:50:37;96829.00;;;9.20
10058;BMP180;5068;51.286;7.518;2024-02-23T01:52:10;96818.00;;;9.20
10058;BMP180;5068;51.286;7.518;2024-02-23T01:53:44;96825.00;;;9.20
10058;BMP180;5068;51.286;7.518;2024-02-23T01:55:20;96817.00;;;9.20
10058;BMP180;5068;51.286;7.518;2024-02-23T01:56:53;96828.00;;;9.20
10058;BMP180;5068;51.286;7.518;2024-02-23T01:58:29;96836.00;;;9.20
10058;BMP180;5068;51.286;7.518;2024-02-23T02:00:02;96833.00;;;9.10
10058;BMP180;5068;51.286;7.518;2024-02-23T02:01:43;96831.00;;;9.10
10058;BMP180;5068;51.286;7.518;2024-02-23T02:03:16;96827.00;;;9.10
10058;BMP180;5068;51.286;7.518;2024-02-23T02:04:49;96836.00;;;9.20
10058;BMP180;5068;51.286;7.518;2024-02-23T02:06:22;96838.00;;;9.20
10058;BMP180;5068;51.286;7.518;2024-02-23T02:07:56;96841.00;;;9.20
10058;BMP180;5068;51.286;7.518;2024-02-23T02:09:31;96841.00;;;9.20
10058;BMP180;5068;51.286;7.518;2024-02-23T02:11:07;96849.00;;;9.20
10058;BMP180;5068;51.286;7.518;2024-02-23T02:12:39;96844.00;;;9.20
10058;BMP180;5068;51.286;7.518;2024-02-23T02:14:13;96852.00;;;9.10
10058;BMP180;5068;51.286;7.518;2024-02-23T02:15:45;96842.00;;;9.10
10058;BMP180;5068;51.286;7.518;2024-02-23T02:17:19;96848.00;;;9.10
10058;BMP180;5068;51.286;7.518;2024-02-23T02:18:51;96842.00;;;9.10
10058;BMP180;5068;51.286;7.518;2024-02-23T02:20:25;96850.00;;;9.10
10058;BMP180;5068;51.286;7.518;2024-02-23T02:21:59;96854.00;;;9.10
10058;BMP180;5068;51.286;7.518;2024-02-23T02:23:31;96865.00;;;9.10
10058;BMP180;5068;51.286;7.518;2024-02-23T02:25:06;96850.00;;;9.10
10058;BMP180;5068;51.286;7.518;2024-02-23T02:26:40;96843.00;;;9.10
10058;BMP180;5068;51.286;7.518;2024-02-23T02:28:15;96854.00;;;9.20
10058;BMP180;5068;51.286;7.518;2024-02-23T02:29:50;96850.00;;;9.20
10058;BMP180;5068;51.286;7.518;2024-02-23T02:31:23;96862.00;;;9.20
10058;BMP180;5068;51.286;7.518;2024-02-23T02:32:57;96852.00;;;9.20
10058;BMP180;5068;51.286;7.518;2024-02-23T02:34:29;96859.00;;;9.20
10058;BMP180;5068;51.286;7.518;2024-02-23T02:36:03;96870.00;;;9.20
10058;BMP180;5068;51.286;7.518;2024-02-23T02:37:36;96868.00;;;9.20
10058;BMP180;5068;51.286;7.518;2024-02-23T02:39:09;96863.00;;;9.20
10058;BMP180;5068;51.286;7.518;2024-02-23T02:40:43;96866.00;;;9.10
10058;BMP180;5068;51.286;7.518;2024-02-23T02:42:17;96868.00;;;9.10
10058;BMP180;5068;51.286;7.518;2024-02-23T02:43:49;96862.00;;;9.10
10058;BMP180;5068;51.286;7.518;2024-02-23T02:45:23;96875.00;;;9.10
10058;BMP180;5068;51.286;7.518;2024-02-23T02:46:56;96869.00;;;9.10
10058;BMP180;5068;51.286;7.518;2024-02-23T02:48:30;96876.00;;;9.10
10058;BMP180;5068;51.286;7.518;2024-02-23T02:50:02;96885.00;;;9.10
10058;BMP180;5068;51.286;7.518;2024-02-23T02:51:38;96891.00;;;9.10
10058;BMP180;5068;51.286;7.518;2024-02-23T02:53:11;96893.00;;;9.10
10058;BMP180;5068;51.286;7.518;2024-02-23T02:54:45;96892.00;;;9.10
10058;BMP180;5068;51.286;7.518;2024-02-23T02:56:17;96900.00;;;9.10
10058;BMP180;5068;51.286;7.518;2024-02-23T02:57:52;96896.00;;;9.10
10058;BMP180;5068;51.286;7.518;2024-02-23T02:59:24;96896.00;;;9.10
10058;BMP180;5068;51.286;7.518;2024-02-23T03:00:59;96899.00;;;9.10
10058;BMP180;5068;51.286;7.518;2024-02-23T03:02:32;96903.00;;;9.10
10058;BMP180;5068;51.286;7.518;2024-02-23T03:04:05;96900.00;;;9.10
10058;BMP180;5068;51.286;7.518;2024-02-23T03:05:38;96905.00;;;9.10
10058;BMP180;5068;51.286;7.518;2024-02-23T03:07:11;96915.00;;;9.10
10058;BMP180;5068;51.286;7.518;2024-02-23T03:08:44;96908.00;;;9.10
10058;BMP180;5068;51.286;7.518;2024-02-23T03:10:17;96905.00;;;9.10
10058;BMP180;5068;51.286;7.518;2024-02-23T03:11:50;96915.00;;;9.10
10058;BMP180;5068;51.286;7.518;2024-02-23T03:13:25;96919.00;;;9.10
10058;BMP180;5068;51.286;7.518;2024-02-23T03:14:57;96912.00;;;9.10
10058;BMP180;5068;51.286;7.518;2024-02-23T03:16:30;96906.00;;;9.00
10058;BMP180;5068;51.286;7.518;2024-02-23T03:18:03;96919.00;;;9.00
10058;BMP180;5068;51.286;7.518;2024-02-23T03:19:37;96927.00;;;9.00
10058;BMP180;5068;51.286;7.518;2024-02-23T03:21:10;96922.00;;;9.00
10058;BMP180;5068;51.286;7.518;2024-02-23T03:22:43;96909.00;;;9.00
10058;BMP180;5068;51.286;7.518;2024-02-23T03:24:15;96920.00;;;9.00
10058;BMP180;5068;51.286;7.518;2024-02-23T03:25:48;96929.00;;;9.00
10058;BMP180;5068;51.286;7.518;2024-02-23T03:27:28;96929.00;;;9.10
10058;BMP180;5068;51.286;7.518;2024-02-23T03:29:02;96926.00;;;9.00
10058;BMP180;5068;51.286;7.518;2024-02-23T03:30:35;96921.00;;;9.00
10058;BMP180;5068;51.286;7.518;2024-02-23T03:32:09;96933.00;;;9.00
10058;BMP180;5068;51.286;7.518;2024-02-23T03:33:41;96931.00;;;9.00
10058;BMP180;5068;51.286;7.518;2024-02-23T03:35:15;96931.00;;;9.00
10058;BMP180;5068;51.286;7.518;2024-02-23T03:36:47;96931.00;;;9.00
10058;BMP180;5068;51.286;7.518;2024-02-23T03:38:20;96931.00;;;9.00
10058;BMP180;5068;51.286;7.518;2024-02-23T03:39:53;96937.00;;;9.00
10058;BMP180;5068;51.286;7.518;2024-02-23T03:41:26;96935.00;;;8.90
10058;BMP180;5068;51.286;7.518;2024-02-23T03:42:59;96938.00;;;8.90
10058;BMP180;5068;51.286;7.518;2024-02-23T03:44:34;96935.00;;;8.90
10058;BMP180;5068;51.286;7.518;2024-02-23T03:46:06;96927.00;;;8.90
10058;BMP180;5068;51.286;7.518;2024-02-23T03:47:40;96940.00;;;8.90
10058;BMP180;5068;51.286;7.518;2024-02-23T03:49:13;96934.00;;;8.90
10058;BMP180;5068;51.286;7.518;2024-02-23T03:50:46;96927.00;;;8.80
10058;BMP180;5068;51.286;7.518;2024-02-23T03:52:19;96935.00;;;8.80
10058;BMP180;5068;51.286;7.518;2024-02-23T03:53:52;96935.00;;;8.80
10058;BMP180;5068;51.286;7.518;2024-02-23T03:55:25;96934.00;;;8.80
10058;BMP180;5068;51.286;7.518;2024-02-23T03:56:58;96932.00;;;8.80
10058;BMP180;5068;51.286;7.518;2024-02-23T03:58:30;96937.00;;;8.70
10058;BMP180;5068;51.286;7.518;2024-02-23T04:00:07;96940.00;;;8.80
10058;BMP180;5068;51.286;7.518;2024-02-23T04:01:46;96940.00;;;8.70
10058;BMP180;5068;51.286;7.518;2024-02-23T04:03:19;96952.00;;;8.80
10058;BMP180;5068;51.286;7.518;2024-02-23T04:04:52;96942.00;;;8.80
10058;BMP180;5068;51.286;7.518;2024-02-23T04:06:26;96946.00;;;8.80
10058;BMP180;5068;51.286;7.518;2024-02-23T04:07:58;96956.00;;;8.80
10058;BMP180;5068;51.286;7.518;2024-02-23T04:09:32;96954.00;;;8.80
10058;BMP180;5068;51.286;7.518;2024-02-23T04:11:04;96951.00;;;8.80
10058;BMP180;5068;51.286;7.518;2024-02-23T04:12:37;96963.00;;;8.80
10058;BMP180;5068;51.286;7.518;2024-02-23T04:14:11;96963.00;;;8.80
10058;BMP180;5068;51.286;7.518;2024-02-23T04:15:44;96961.00;;;8.80
10058;BMP180;5068;51.286;7.518;2024-02-23T04:17:18;96955.00;;;8.80
10058;BMP180;5068;51.286;7.518;2024-02-23T04:18:51;96967.00;;;8.80
10058;BMP180;5068;51.286;7.518;2024-02-23T04:20:24;96969.00;;;8.80
10058;BMP180;5068;51.286;7.518;2024-02-23T04:21:57;96969.00;;;8.80
10058;BMP180;5068;51.286;7.518;2024-02-23T04:23:30;96963.00;;;8.80
10058;BMP180;5068;51.286;7.518;2024-02-23T04:25:04;96983.00;;;8.80
10058;BMP180;5068;51.286;7.518;2024-02-23T04:26:37;96979.00;;;8.80
10058;BMP180;5068;51.286;7.518;2024-02-23T04:28:10;96976.00;;;8.80
10058;BMP180;5068;51.286;7.518;2024-02-23T04:29:43;96970.00;;;8.80
10058;BMP180;5068;51.286;7.518;2024-02-23T04:31:17;96968.00;;;8.80
10058;BMP180;5068;51.286;7.518;2024-02-23T04:32:50;96986.00;;;8.80
10058;BMP180;5068;51.286;7.518;2024-02-23T04:34:23;96978.00;;;8.80
10058;BMP180;5068;51.286;7.518;2024-02-23T04:35:55;96980.00;;;8.80
10058;BMP180;5068;51.286;7.518;2024-02-23T04:37:29;96988.00;;;8.80
10058;BMP180;5068;51.286;7.518;2024-02-23T04:39:06;96972.00;;;8.80
10058;BMP180;5068;51.286;7.518;2024-02-23T04:40:39;96983.00;;;8.70
10058;BMP180;5068;51.286;7.518;2024-02-23T04:42:12;96984.00;;;8.80
10058;BMP180;5068;51.286;7.518;2024-02-23T04:43:45;96984.00;;;8.70
10058;BMP180;5068;51.286;7.518;2024-02-23T04:45:18;96988.00;;;8.70
10058;BMP180;5068;51.286;7.518;2024-02-23T04:46:52;96998.00;;;8.70
10058;BMP180;5068;51.286;7.518;2024-02-23T04:48:25;96981.00;;;8.70
10058;BMP180;5068;51.286;7.518;2024-02-23T04:49:57;96984.00;;;8.70
10058;BMP180;5068;51.286;7.518;2024-02-23T04:51:31;96987.00;;;8.70
10058;BMP180;5068;51.286;7.518;2024-02-23T04:53:04;96993.00;;;8.70
10058;BMP180;5068;51.286;7.518;2024-02-23T04:54:37;96986.00;;;8.70
10058;BMP180;5068;51.286;7.518;2024-02-23T04:56:10;96999.00;;;8.80
10058;BMP180;5068;51.286;7.518;2024-02-23T04:57:43;96987.00;;;8.70
10058;BMP180;5068;51.286;7.518;2024-02-23T04:59:16;97004.00;;;8.80
10058;BMP180;5068;51.286;7.518;2024-02-23T05:00:49;97002.00;;;8.80
10058;BMP180;5068;51.286;7.518;2024-02-23T05:02:23;96983.00;;;8.70
10058;BMP180;5068;51.286;7.518;2024-02-23T05:03:56;96986.00;;;8.70
10058;BMP180;5068;51.286;7.518;2024-02-23T05:05:29;96988.00;;;8.70
10058;BMP180;5068;51.286;7.518;2024-02-23T05:07:02;96987.00;;;8.70
10058;BMP180;5068;51.286;7.518;2024-02-23T05:08:34;96990.00;;;8.70
10058;BMP180;5068;51.286;7.518;2024-02-23T05:10:09;96983.00;;;8.70
10058;BMP180;5068;51.286;7.518;2024-02-23T05:11:42;96981.00;;;8.70
10058;BMP180;5068;51.286;7.518;2024-02-23T05:13:15;96989.00;;;8.70
10058;BMP180;5068;51.286;7.518;2024-02-23T05:14:48;96989.00;;;8.70
10058;BMP180;5068;51.286;7.518;2024-02-23T05:16:20;96981.00;;;8.60
10058;BMP180;5068;51.286;7.518;2024-02-23T05:17:55;96981.00;;;8.70
10058;BMP180;5068;51.286;7.518;2024-02-23T05:19:28;96987.00;;;8.70
10058;BMP180;5068;51.286;7.518;2024-02-23T05:21:01;96984.00;;;8.60
10058;BMP180;5068;51.286;7.518;2024-02-23T05:22:34;96980.00;;;8.60
10058;BMP180;5068;51.286;7.518;2024-02-23T05:24:07;96989.00;;;8.60
10058;BMP180;5068;51.286;7.518;2024-02-23T05:25:39;96983.00;;;8.60
10058;BMP180;5068;51.286;7.518;2024-02-23T05:27:12;96974.00;;;8.60
10058;BMP180;5068;51.286;7.518;2024-02-23T05:28:45;96973.00;;;8.60
10058;BMP180;5068;51.286;7.518;2024-02-23T05:30:18;96964.00;;;8.60
10058;BMP180;5068;51.286;7.518;2024-02-23T05:31:52;96982.00;;;8.60
10058;BMP180;5068;51.286;7.518;2024-02-23T05:33:27;96971.00;;;8.60
10058;BMP180;5068;51.286;7.518;2024-02-23T05:35:00;96984.00;;;8.60
10058;BMP180;5068;51.286;7.518;2024-02-23T05:36:35;96977.00;;;8.60
10058;BMP180;5068;51.286;7.518;2024-02-23T05:38:10;96977.00;;;8.60
10058;BMP180;5068;51.286;7.518;2024-02-23T05:39:43;96987.00;;;8.60
10058;BMP180;5068;51.286;7.518;2024-02-23T05:41:19;96980.00;;;8.60
10058;BMP180;5068;51.286;7.518;2024-02-23T05:42:52;96986.00;;;8.60
10058;BMP180;5068;51.286;7.518;2024-02-23T05:44:26;96979.00;;;8.60
10058;BMP180;5068;51.286;7.518;2024-02-23T05:46:00;96984.00;;;8.60
10058;BMP180;5068;51.286;7.518;2024-02-23T05:47:34;96973.00;;;8.60
10058;BMP180;5068;51.286;7.518;2024-02-23T05:49:07;96978.00;;;8.60
10058;BMP180;5068;51.286;7.518;2024-02-23T05:50:42;96981.00;;;8.60
10058;BMP180;5068;51.286;7.518;2024-02-23T05:52:14;96978.00;;;8.60
10058;BMP180;5068;51.286;7.518;2024-02-23T05:53:48;96980.00;;;8.60
10058;BMP180;5068;51.286;7.518;2024-02-23T05:55:20;96962.00;;;8.60
10058;BMP180;5068;51.286;7.518;2024-02-23T05:56:53;96974.00;;;8.50
10058;BMP180;5068;51.286;7.518;2024-02-23T05:58:25;96973.00;;;8.50
10058;BMP180;5068;51.286;7.518;2024-02-23T05:59:59;96976.00;;;8.50
10058;BMP180;5068;51.286;7.518;2024-02-23T06:01:31;96977.00;;;8.50
10058;BMP180;5068;51.286;7.518;2024-02-23T06:03:05;96962.00;;;8.50
10058;BMP180;5068;51.286;7.518;2024-02-23T06:04:40;96978.00;;;8.40
10058;BMP180;5068;51.286;7.518;2024-02-23T06:06:14;96976.00;;;8.40
10058;BMP180;5068;51.286;7.518;2024-02-23T06:07:47;96966.00;;;8.50
10058;BMP180;5068;51.286;7.518;2024-02-23T06:09:21;96959.00;;;8.50
10058;BMP180;5068;51.286;7.518;2024-02-23T06:10:54;96960.00;;;8.50
10058;BMP180;5068;51.286;7.518;2024-02-23T06:12:27;96960.00;;;8.50
10058;BMP180;5068;51.286;7.518;2024-02-23T06:14:00;96968.00;;;8.50
10058;BMP180;5068;51.286;7.518;2024-02-23T06:15:34;96968.00;;;8.50
10058;BMP180;5068;51.286;7.518;2024-02-23T06:17:06;96971.00;;;8.50
10058;BMP180;5068;51.286;7.518;2024-02-23T06:18:40;96980.00;;;8.40
10058;BMP180;5068;51.286;7.518;2024-02-23T06:20:16;96971.00;;;8.40
10058;BMP180;5068;51.286;7.518;2024-02-23T06:21:50;96972.00;;;8.40
10058;BMP180;5068;51.286;7.518;2024-02-23T06:23:23;96965.00;;;8.40
10058;BMP180;5068;51.286;7.518;2024-02-23T06:24:56;96968.00;;;8.40
10058;BMP180;5068;51.286;7.518;2024-02-23T06:26:28;96962.00;;;8.40
10058;BMP180;5068;51.286;7.518;2024-02-23T06:28:02;96961.00;;;8.30
10058;BMP180;5068;51.286;7.518;2024-02-23T06:29:35;96965.00;;;8.30
10058;BMP180;5068;51.286;7.518;2024-02-23T06:31:09;96967.00;;;8.30
10058;BMP180;5068;51.286;7.518;2024-02-23T06:32:43;96965.00;;;8.30
10058;BMP180;5068;51.286;7.518;2024-02-23T06:34:17;96975.00;;;8.30
10058;BMP180;5068;51.286;7.518;2024-02-23T06:35:52;96969.00;;;8.30
10058;BMP180;5068;51.286;7.518;2024-02-23T06:37:24;96960.00;;;8.30
10058;BMP180;5068;51.286;7.518;2024-02-23T06:38:58;96964.00;;;8.20
10058;BMP180;5068;51.286;7.518;2024-02-23T06:40:31;96965.00;;;8.30
10058;BMP180;5068;51.286;7.518;2024-02-23T06:42:19;96971.00;;;8.20
10058;BMP180;5068;51.286;7.518;2024-02-23T06:43:52;96972.00;;;8.20
10058;BMP180;5068;51.286;7.518;2024-02-23T06:45:25;96976.00;;;8.20
10058;BMP180;5068;51.286;7.518;2024-02-23T06:46:58;96975.00;;;8.20
10058;BMP180;5068;51.286;7.518;2024-02-23T06:48:31;96980.00;;;8.30
10058;BMP180;5068;51.286;7.518;2024-02-23T06:50:07;96991.00;;;8.30
10058;BMP180;5068;51.286;7.518;2024-02-23T06:51:42;96979.00;;;8.20
10058;BMP180;5068;51.286;7.518;2024-02-23T06:53:15;96983.00;;;8.30
10058;BMP180;5068;51.286;7.518;2024-02-23T06:54:48;96984.00;;;8.20
10058;BMP180;5068;51.286;7.518;2024-02-23T06:56:25;96984.00;;;8.30
10058;BMP180;5068;51.286;7.518;2024-02-23T06:58:04;96984.00;;;8.20
10058;BMP180;5068;51.286;7.518;2024-02-23T06:59:37;96993.00;;;8.30
10058;BMP180;5068;51.286;7.518;2024-02-23T07:01:10;96984.00;;;8.20
10058;BMP180;5068;51.286;7.518;2024-02-23T07:02:45;96984.00;;;8.20
10058;BMP180;5068;51.286;7.518;2024-02-23T07:04:19;96991.00;;;8.20
10058;BMP180;5068;51.286;7.518;2024-02-23T07:05:51;96977.00;;;8.20
10058;BMP180;5068;51.286;7.518;2024-02-23T07:07:26;96981.00;;;8.20
10058;BMP180;5068;51.286;7.518;2024-02-23T07:09:00;96993.00;;;8.20
10058;BMP180;5068;51.286;7.518;2024-02-23T07:10:36;96991.00;;;8.20
10058;BMP180;5068;51.286;7.518;2024-02-23T07:12:08;96978.00;;;8.20
10058;BMP180;5068;51.286;7.518;2024-02-23T07:13:45;96980.00;;;8.20
10058;BMP180;5068;51.286;7.518;2024-02-23T07:15:21;96983.00;;;8.20
10058;BMP180;5068;51.286;7.518;2024-02-23T07:16:54;96980.00;;;8.20
10058;BMP180;5068;51.286;7.518;2024-02-23T07:18:29;96989.00;;;8.20
10058;BMP180;5068;51.286;7.518;2024-02-23T07:20:03;96990.00;;;8.20
10058;BMP180;5068;51.286;7.518;2024-02-23T07:21:38;96990.00;;;8.20
10058;BMP180;5068;51.286;7.518;2024-02-23T07:23:16;96997.00;;;8.20
10058;BMP180;5068;51.286;7.518;2024-02-23T07:24:49;97000.00;;;8.20
10058;BMP180;5068;51.286;7.518;2024-02-23T07:26:22;96990.00;;;8.20
10058;BMP180;5068;51.286;7.518;2024-02-23T07:27:56;97005.00;;;8.20
10058;BMP180;5068;51.286;7.518;2024-02-23T07:29:28;96987.00;;;8.20
10058;BMP180;5068;51.286;7.518;2024-02-23T07:31:03;96986.00;;;8.20
10058;BMP180;5068;51.286;7.518;2024-02-23T07:32:35;96998.00;;;8.20
10058;BMP180;5068;51.286;7.518;2024-02-23T07:34:09;96982.00;;;8.20
10058;BMP180;5068;51.286;7.518;2024-02-23T07:35:41;96977.00;;;8.30
10058;BMP180;5068;51.286;7.518;2024-02-23T07:37:15;96983.00;;;8.30
10058;BMP180;5068;51.286;7.518;2024-02-23T07:38:48;96980.00;;;8.30
10058;BMP180;5068;51.286;7.518;2024-02-23T07:40:22;96977.00;;;8.30
10058;BMP180;5068;51.286;7.518;2024-02-23T07:41:54;96974.00;;;8.30
10058;BMP180;5068;51.286;7.518;2024-02-23T07:43:27;96985.00;;;8.30
10058;BMP180;5068;51.286;7.518;2024-02-23T07:45:02;96982.00;;;8.30
10058;BMP180;5068;51.286;7.518;2024-02-23T07:46:36;96987.00;;;8.30
10058;BMP180;5068;51.286;7.518;2024-02-23T07:48:08;96985.00;;;8.30
10058;BMP180;5068;51.286;7.518;2024-02-23T07:49:42;96982.00;;;8.30
10058;BMP180;5068;51.286;7.518;2024-02-23T07:51:14;96993.00;;;8.30
10058;BMP180;5068;51.286;7.518;2024-02-23T07:52:48;96989.00;;;8.30
10058;BMP180;5068;51.286;7.518;2024-02-23T07:54:21;96998.00;;;8.30
10058;BMP180;5068;51.286;7.518;2024-02-23T07:55:54;97001.00;;;8.30
10058;BMP180;5068;51.286;7.518;2024-02-23T07:57:27;96992.00;;;8.30
10058;BMP180;5068;51.286;7.518;2024-02-23T07:59:00;96993.00;;;8.30
10058;BMP180;5068;51.286;7.518;2024-02-23T08:00:35;97004.00;;;8.30
10058;BMP180;5068;51.286;7.518;2024-02-23T08:02:10;97001.00;;;8.30
10058;BMP180;5068;51.286;7.518;2024-02-23T08:03:43;97006.00;;;8.40
10058;BMP180;5068;51.286;7.518;2024-02-23T08:05:16;97003.00;;;8.40
10058;BMP180;5068;51.286;7.518;2024-02-23T08:06:49;97001.00;;;8.40
10058;BMP180;5068;51.286;7.518;2024-02-23T08:08:23;97002.00;;;8.40
10058;BMP180;5068;51.286;7.518;2024-02-23T08:09:59;97003.00;;;8.40
10058;BMP180;5068;51.286;7.518;2024-02-23T08:11:32;97002.00;;;8.40
10058;BMP180;5068;51.286;7.518;2024-02-23T08:13:08;97007.00;;;8.40
10058;BMP180;5068;51.286;7.518;2024-02-23T08:14:42;97008.00;;;8.40
10058;BMP180;5068;51.286;7.518;2024-02-23T08:16:17;96998.00;;;8.50
10058;BMP180;5068;51.286;7.518;2024-02-23T08:17:50;97014.00;;;8.50
10058;BMP180;5068;51.286;7.518;2024-02-23T08:19:23;97024.00;;;8.50
10058;BMP180;5068;51.286;7.518;2024-02-23T08:20:56;97018.00;;;8.60
10058;BMP180;5068;51.286;7.518;2024-02-23T08:22:29;97021.00;;;8.60
10058;BMP180;5068;51.286;7.518;2024-02-23T08:24:02;97011.00;;;8.60
10058;BMP180;5068;51.286;7.518;2024-02-23T08:25:37;97008.00;;;8.60
10058;BMP180;5068;51.286;7.518;2024-02-23T08:27:11;97025.00;;;8.70
10058;BMP180;5068;51.286;7.518;2024-02-23T08:28:43;97032.00;;;8.70
10058;BMP180;5068;51.286;7.518;2024-02-23T08:30:17;97020.00;;;8.80
10058;BMP180;5068;51.286;7.518;2024-02-23T08:31:50;97021.00;;;8.80
10058;BMP180;5068;51.286;7.518;2024-02-23T08:33:23;97021.00;;;8.80
10058;BMP180;5068;51.286;7.518;2024-02-23T08:34:56;97023.00;;;8.80
10058;BMP180;5068;51.286;7.518;2024-02-23T08:36:32;97020.00;;;8.80
10058;BMP180;5068;51.286;7.518;2024-02-23T08:38:04;97028.00;;;8.90
10058;BMP180;5068;51.286;7.518;2024-02-23T08:39:38;97028.00;;;8.90
10058;BMP180;5068;51.286;7.518;2024-02-23T08:41:11;97019.00;;;8.90
10058;BMP180;5068;51.286;7.518;2024-02-23T08:42:45;97020.00;;;8.90
10058;BMP180;5068;51.286;7.518;2024-02-23T08:44:18;97023.00;;;9.00
10058;BMP180;5068;51.286;7.518;2024-02-23T08:45:52;97027.00;;;9.00
10058;BMP180;5068;51.286;7.518;2024-02-23T08:47:24;97035.00;;;9.00
10058;BMP180;5068;51.286;7.518;2024-02-23T08:49:00;97029.00;;;9.00
10058;BMP180;5068;51.286;7.518;2024-02-23T08:50:32;97029.00;;;9.00
10058;BMP180;5068;51.286;7.518;2024-02-23T08:52:07;97030.00;;;9.10
10058;BMP180;5068;51.286;7.518;2024-02-23T08:53:40;97031.00;;;9.10
10058;BMP180;5068;51.286;7.518;2024-02-23T08:55:13;97036.00;;;9.10
10058;BMP180;5068;51.286;7.518;2024-02-23T08:56:47;97032.00;;;9.10
10058;BMP180;5068;51.286;7.518;2024-02-23T08:58:20;97043.00;;;9.10
10058;BMP180;5068;51.286;7.518;2024-02-23T08:59:52;97040.00;;;9.20
10058;BMP180;5068;51.286;7.518;2024-02-23T09:01:28;97037.00;;;9.20
10058;BMP180;5068;51.286;7.518;2024-02-23T09:03:01;97043.00;;;9.20
10058;BMP180;5068;51.286;7.518;2024-02-23T09:04:34;97035.00;;;9.20
10058;BMP180;5068;51.286;7.518;2024-02-23T09:06:06;97037.00;;;9.20
10058;BMP180;5068;51.286;7.518;2024-02-23T09:07:40;97026.00;;;9.20
10058;BMP180;5068;51.286;7.518;2024-02-23T09:09:13;97030.00;;;9.30
10058;BMP180;5068;51.286;7.518;2024-02-23T09:10:46;97037.00;;;9.30
10058;BMP180;5068;51.286;7.518;2024-02-23T09:12:20;97029.00;;;9.30
10058;BMP180;5068;51.286;7.518;2024-02-23T09:13:53;97029.00;;;9.30